createdAt,value
2023-04-17T00:00:17.742Z,22.3114
2023-04-17T00:01:20.335Z,22.3081
2023-04-17T00:02:23.028Z,22.3050
2023-04-17T00:03:25.557Z,22.3151
2023-04-17T00:04:28.156Z,22.3042
2023-04-17T00:05:30.696Z,22.3003
2023-04-17T00:06:33.210Z,22.3036
2023-04-17T00:07:35.824Z,22.3110
2023-04-17T00:08:38.655Z,22.3104
2023-04-17T00:09:40.995Z,22.2989
2023-04-17T00:10:44.442Z,22.3001
2023-04-17T00:11:46.157Z,22.2989
2023-04-17T00:12:48.707Z,22.3075
2023-04-17T00:13:51.322Z,22.3019
2023-04-17T00:14:54.078Z,22.3046
2023-04-17T00:15:56.595Z,22.3182
2023-04-17T00:16:59.044Z,22.3188
2023-04-17T00:18:01.777Z,22.2937
2023-04-17T00:19:04.204Z,22.3046
2023-04-17T00:20:07.122Z,22.3110
2023-04-17T00:21:09.375Z,22.3052
2023-04-17T00:22:11.980Z,22.3130
2023-04-17T00:23:14.542Z,22.3153
2023-04-17T00:24:17.148Z,22.3254
2023-04-17T00:25:19.712Z,22.3276
2023-04-17T00:26:22.304Z,22.3184
2023-04-17T00:27:24.859Z,22.3217
2023-04-17T00:28:27.474Z,22.3118
2023-04-17T00:29:30.029Z,22.3223
2023-04-17T00:30:32.642Z,22.3231
2023-04-17T00:31:35.226Z,22.3169
2023-04-17T00:32:37.890Z,22.3334
2023-04-17T00:33:40.566Z,22.3284
2023-04-17T00:34:42.974Z,22.3299
2023-04-17T00:35:45.532Z,22.3247
2023-04-17T00:36:48.136Z,22.3243
2023-04-17T00:37:50.720Z,22.3221
2023-04-17T00:38:53.311Z,22.3176
2023-04-17T00:39:55.865Z,22.3124
2023-04-17T00:40:58.469Z,22.3019
2023-04-17T00:42:01.319Z,22.3015
2023-04-17T00:43:03.613Z,22.2921
2023-04-17T00:44:06.365Z,22.2882
2023-04-17T00:45:08.780Z,22.2859
2023-04-17T00:46:11.439Z,22.2964
2023-04-17T00:47:13.956Z,22.3118
2023-04-17T00:48:16.576Z,22.3122
2023-04-17T00:49:19.127Z,22.3122
2023-04-17T00:50:21.747Z,22.3157
2023-04-17T00:51:24.301Z,22.3161
2023-04-17T00:52:27.109Z,22.3186
2023-04-17T00:53:29.463Z,22.3301
2023-04-17T00:54:32.090Z,22.3280
2023-04-17T00:55:34.645Z,22.3217
2023-04-17T00:56:37.246Z,22.3141
2023-04-17T00:57:39.812Z,22.3132
2023-04-17T00:58:42.406Z,22.2917
2023-04-17T00:59:44.960Z,22.3073
2023-04-17T01:00:47.606Z,22.3190
2023-04-17T01:01:50.208Z,22.3019
2023-04-17T01:02:52.829Z,22.3097
2023-04-17T01:03:55.764Z,22.3110
2023-04-17T01:04:57.987Z,22.3157
2023-04-17T01:06:00.538Z,22.3093
2023-04-17T01:07:03.173Z,22.3075
2023-04-17T01:08:05.703Z,22.3126
2023-04-17T01:09:08.306Z,22.3155
2023-04-17T01:10:10.862Z,22.3139
2023-04-17T01:11:13.469Z,22.3165
2023-04-17T01:12:16.023Z,22.3301
2023-04-17T01:13:18.664Z,22.3301
2023-04-17T01:14:21.209Z,22.3227
2023-04-17T01:15:23.821Z,22.3297
2023-04-17T01:16:26.380Z,22.3245
2023-04-17T01:17:28.987Z,22.3190
2023-04-17T01:18:31.527Z,22.3268
2023-04-17T01:19:34.350Z,22.3291
2023-04-17T01:20:37.006Z,22.3200
2023-04-17T01:21:39.308Z,22.3239
2023-04-17T01:22:41.854Z,22.3249
2023-04-17T01:23:44.470Z,22.3270
2023-04-17T01:24:47.039Z,22.3233
2023-04-17T01:25:49.637Z,22.3276
2023-04-17T01:26:52.202Z,22.3311
2023-04-17T01:27:54.795Z,22.3313
2023-04-17T01:28:57.409Z,22.3266
2023-04-17T01:29:59.967Z,22.3266
2023-04-17T01:31:02.566Z,22.3323
2023-04-17T01:32:05.134Z,22.3288
2023-04-17T01:33:07.707Z,22.3350
2023-04-17T01:34:10.306Z,22.3416
2023-04-17T01:35:12.874Z,22.3288
2023-04-17T01:36:15.485Z,22.3268
2023-04-17T01:37:18.041Z,22.3311
2023-04-17T01:38:20.664Z,22.3284
2023-04-17T01:39:23.508Z,22.3260
2023-04-17T01:40:25.835Z,22.3241
2023-04-17T01:41:28.401Z,22.3204
2023-04-17T01:42:30.990Z,22.3325
2023-04-17T01:43:33.569Z,22.3299
2023-04-17T01:44:36.164Z,22.3299
2023-04-17T01:45:38.760Z,22.3254
2023-04-17T01:46:41.409Z,22.3202
2023-04-17T01:47:43.926Z,22.3245
2023-04-17T01:48:46.628Z,22.3288
2023-04-17T01:49:49.069Z,22.3286
2023-04-17T01:50:51.681Z,22.3221
2023-04-17T01:51:54.243Z,22.3270
2023-04-17T01:52:56.847Z,22.3157
2023-04-17T01:53:59.407Z,22.3161
2023-04-17T01:55:02.020Z,22.3083
2023-04-17T01:56:04.586Z,22.3120
2023-04-17T01:57:07.202Z,22.3030
2023-04-17T01:58:09.759Z,22.2896
2023-04-17T01:59:12.504Z,22.2902
2023-04-17T02:00:14.928Z,22.2997
2023-04-17T02:01:17.559Z,22.2999
2023-04-17T02:02:20.332Z,22.2876
2023-04-17T02:03:22.814Z,22.2816
2023-04-17T02:04:25.329Z,22.2925
2023-04-17T02:05:27.883Z,22.3089
2023-04-17T02:06:30.446Z,22.2987
2023-04-17T02:07:33.058Z,22.2939
2023-04-17T02:08:35.617Z,22.3081
2023-04-17T02:09:38.235Z,22.3038
2023-04-17T02:10:40.793Z,22.3015
2023-04-17T02:11:43.404Z,22.3024
2023-04-17T02:12:45.966Z,22.3093
2023-04-17T02:13:48.576Z,22.3087
2023-04-17T02:14:51.137Z,22.3095
2023-04-17T02:15:53.771Z,22.3145
2023-04-17T02:16:56.321Z,22.3149
2023-04-17T02:17:59.018Z,22.3194
2023-04-17T02:19:01.488Z,22.3040
2023-04-17T02:20:04.102Z,22.3083
2023-04-17T02:21:06.661Z,22.3182
2023-04-17T02:22:09.266Z,22.3060
2023-04-17T02:23:11.843Z,22.2995
2023-04-17T02:24:14.434Z,22.3005
2023-04-17T02:25:17.295Z,22.3118
2023-04-17T02:26:19.613Z,22.3032
2023-04-17T02:27:22.163Z,22.2999
2023-04-17T02:28:24.783Z,22.3173
2023-04-17T02:29:27.355Z,22.3097
2023-04-17T02:30:29.942Z,22.3017
2023-04-17T02:31:32.546Z,22.3007
2023-04-17T02:32:35.139Z,22.2974
2023-04-17T02:33:37.685Z,22.3036
2023-04-17T02:34:40.273Z,22.2993
2023-04-17T02:35:42.829Z,22.2993
2023-04-17T02:36:45.453Z,22.2874
2023-04-17T02:37:48.017Z,22.2837
2023-04-17T02:38:50.612Z,22.2878
2023-04-17T02:39:53.183Z,22.2863
2023-04-17T02:40:55.778Z,22.2927
2023-04-17T02:41:58.332Z,22.2882
2023-04-17T02:43:00.952Z,22.3007
2023-04-17T02:44:03.513Z,22.3028
2023-04-17T02:45:06.121Z,22.2886
2023-04-17T02:46:08.825Z,22.2999
2023-04-17T02:47:11.289Z,22.2962
2023-04-17T02:48:13.855Z,22.3028
2023-04-17T02:49:16.449Z,22.2915
2023-04-17T02:50:19.017Z,22.2896
2023-04-17T02:51:21.623Z,22.2997
2023-04-17T02:52:24.237Z,22.3044
2023-04-17T02:53:26.783Z,22.3081
2023-04-17T02:54:29.340Z,22.3089
2023-04-17T02:55:31.946Z,22.3063
2023-04-17T02:56:34.517Z,22.3112
2023-04-17T02:57:37.113Z,22.3067
2023-04-17T02:58:39.711Z,22.3095
2023-04-17T02:59:42.292Z,22.3104
2023-04-17T03:00:44.853Z,22.3077
2023-04-17T03:01:47.504Z,22.3104
2023-04-17T03:02:50.155Z,22.3182
2023-04-17T03:03:52.911Z,22.2982
2023-04-17T03:04:55.170Z,22.3024
2023-04-17T03:05:57.780Z,22.3021
2023-04-17T03:07:00.337Z,22.2835
2023-04-17T03:08:02.943Z,22.2633
2023-04-17T03:09:05.518Z,22.2719
2023-04-17T03:10:08.118Z,22.2837
2023-04-17T03:11:10.670Z,22.2933
2023-04-17T03:12:13.285Z,22.2972
2023-04-17T03:13:15.840Z,22.2987
2023-04-17T03:14:18.484Z,22.3052
2023-04-17T03:15:21.032Z,22.3032
2023-04-17T03:16:23.910Z,22.2779
2023-04-17T03:17:26.201Z,22.2857
2023-04-17T03:18:28.795Z,22.2816
2023-04-17T03:19:31.338Z,22.2902
2023-04-17T03:20:33.956Z,22.2771
2023-04-17T03:21:36.505Z,22.2847
2023-04-17T03:22:39.109Z,22.2824
2023-04-17T03:23:41.673Z,22.2832
2023-04-17T03:24:44.525Z,22.2954
2023-04-17T03:25:46.849Z,22.2851
2023-04-17T03:26:49.480Z,22.2697
2023-04-17T03:27:52.014Z,22.2580
2023-04-17T03:28:54.618Z,22.2629
2023-04-17T03:29:57.199Z,22.2748
2023-04-17T03:30:59.788Z,22.2754
2023-04-17T03:32:02.455Z,22.2859
2023-04-17T03:33:05.009Z,22.2812
2023-04-17T03:34:07.514Z,22.2756
2023-04-17T03:35:10.120Z,22.2724
2023-04-17T03:36:12.685Z,22.2814
2023-04-17T03:37:15.296Z,22.2849
2023-04-17T03:38:17.861Z,22.2923
2023-04-17T03:39:20.854Z,22.2993
2023-04-17T03:40:23.030Z,22.2902
2023-04-17T03:41:25.637Z,22.2956
2023-04-17T03:42:28.203Z,22.2867
2023-04-17T03:43:30.804Z,22.2787
2023-04-17T03:44:33.358Z,22.2808
2023-04-17T03:45:36.233Z,22.2921
2023-04-17T03:46:38.527Z,22.2888
2023-04-17T03:47:41.167Z,22.2820
2023-04-17T03:48:43.703Z,22.2785
2023-04-17T03:49:46.310Z,22.2892
2023-04-17T03:50:48.898Z,22.2904
2023-04-17T03:51:51.477Z,22.2808
2023-04-17T03:52:54.035Z,22.2765
2023-04-17T03:53:56.642Z,22.2853
2023-04-17T03:54:59.201Z,22.2818
2023-04-17T03:56:01.814Z,22.2773
2023-04-17T03:57:04.382Z,22.2629
2023-04-17T03:58:06.992Z,22.2668
2023-04-17T03:59:09.785Z,22.2730
2023-04-17T04:00:12.161Z,22.2775
2023-04-17T04:01:14.793Z,22.2837
2023-04-17T04:02:17.435Z,22.2878
2023-04-17T04:03:20.042Z,22.2752
2023-04-17T04:04:22.827Z,22.2664
2023-04-17T04:05:25.402Z,22.2438
2023-04-17T04:06:27.664Z,22.2444
2023-04-17T04:07:30.269Z,22.2641
2023-04-17T04:08:32.835Z,22.2804
2023-04-17T04:09:35.396Z,22.2769
2023-04-17T04:10:37.999Z,22.2732
2023-04-17T04:11:40.554Z,22.2658
2023-04-17T04:12:43.165Z,22.2742
2023-04-17T04:13:45.722Z,22.2756
2023-04-17T04:14:48.326Z,22.2553
2023-04-17T04:15:50.900Z,22.2551
2023-04-17T04:16:53.496Z,22.2539
2023-04-17T04:17:56.109Z,22.2658
2023-04-17T04:18:58.676Z,22.2672
2023-04-17T04:20:01.269Z,22.2717
2023-04-17T04:21:03.838Z,22.2656
2023-04-17T04:22:06.959Z,22.2623
2023-04-17T04:23:08.989Z,22.2685
2023-04-17T04:24:11.552Z,22.2687
2023-04-17T04:25:14.169Z,22.2775
2023-04-17T04:26:16.713Z,22.2754
2023-04-17T04:27:19.322Z,22.2761
2023-04-17T04:28:21.883Z,22.2744
2023-04-17T04:29:24.493Z,22.2705
2023-04-17T04:30:27.060Z,22.2592
2023-04-17T04:31:29.843Z,22.2641
2023-04-17T04:32:32.298Z,22.2637
2023-04-17T04:33:35.898Z,22.2685
2023-04-17T04:34:37.380Z,22.2440
2023-04-17T04:35:40.007Z,22.2680
2023-04-17T04:36:42.553Z,22.2756
2023-04-17T04:37:45.164Z,22.2785
2023-04-17T04:38:47.726Z,22.2526
2023-04-17T04:39:50.325Z,22.2570
2023-04-17T04:40:52.944Z,22.2680
2023-04-17T04:41:55.502Z,22.2701
2023-04-17T04:42:58.073Z,22.2660
2023-04-17T04:44:00.669Z,22.2722
2023-04-17T04:45:03.239Z,22.2703
2023-04-17T04:46:05.831Z,22.2754
2023-04-17T04:47:08.546Z,22.2763
2023-04-17T04:48:10.995Z,22.2596
2023-04-17T04:49:13.621Z,22.2555
2023-04-17T04:50:17.388Z,22.2635
2023-04-17T04:51:18.755Z,22.2773
2023-04-17T04:52:21.340Z,22.2526
2023-04-17T04:53:24.123Z,22.2596
2023-04-17T04:54:26.514Z,22.2557
2023-04-17T04:55:29.062Z,22.2555
2023-04-17T04:56:33.040Z,22.2422
2023-04-17T04:57:34.229Z,22.2309
2023-04-17T04:58:36.841Z,22.2387
2023-04-17T04:59:39.402Z,22.2539
2023-04-17T05:00:42.052Z,22.2418
2023-04-17T05:01:44.866Z,22.2163
2023-04-17T05:02:47.278Z,22.2093
2023-04-17T05:03:49.874Z,22.2303
2023-04-17T05:04:52.367Z,22.2438
2023-04-17T05:05:54.903Z,22.1951
2023-04-17T05:06:57.612Z,22.1937
2023-04-17T05:08:00.070Z,22.2122
2023-04-17T05:09:02.650Z,22.2190
2023-04-17T05:10:05.285Z,22.1939
2023-04-17T05:11:07.819Z,22.2027
2023-04-17T05:12:10.508Z,22.2153
2023-04-17T05:13:13.084Z,22.2190
2023-04-17T05:14:15.731Z,22.2169
2023-04-17T05:15:18.247Z,22.2294
2023-04-17T05:16:20.882Z,22.2136
2023-04-17T05:17:23.432Z,22.2003
2023-04-17T05:18:26.015Z,22.2350
2023-04-17T05:19:28.564Z,22.2296
2023-04-17T05:20:31.184Z,22.2325
2023-04-17T05:21:33.735Z,22.2442
2023-04-17T05:22:36.339Z,22.2520
2023-04-17T05:23:38.891Z,22.2533
2023-04-17T05:24:41.507Z,22.2541
2023-04-17T05:25:44.064Z,22.2496
2023-04-17T05:26:46.668Z,22.2465
2023-04-17T05:27:49.281Z,22.2570
2023-04-17T05:28:51.828Z,22.2520
2023-04-17T05:29:54.385Z,22.2588
2023-04-17T05:30:56.989Z,22.2543
2023-04-17T05:31:59.604Z,22.2578
2023-04-17T05:33:02.222Z,22.2444
2023-04-17T05:34:04.868Z,22.2514
2023-04-17T05:35:07.344Z,22.2555
2023-04-17T05:36:09.893Z,22.2549
2023-04-17T05:37:12.484Z,22.2522
2023-04-17T05:38:15.045Z,22.2479
2023-04-17T05:39:17.665Z,22.2473
2023-04-17T05:40:20.210Z,22.2609
2023-04-17T05:41:22.822Z,22.2728
2023-04-17T05:42:25.379Z,22.2717
2023-04-17T05:43:28.005Z,22.2623
2023-04-17T05:44:30.548Z,22.2676
2023-04-17T05:45:33.329Z,22.2726
2023-04-17T05:46:35.717Z,22.2656
2023-04-17T05:47:38.515Z,22.2658
2023-04-17T05:48:40.876Z,22.2528
2023-04-17T05:49:43.496Z,22.2459
2023-04-17T05:50:46.058Z,22.2440
2023-04-17T05:51:48.672Z,22.2440
2023-04-17T05:52:51.236Z,22.2294
2023-04-17T05:53:53.851Z,22.2370
2023-04-17T05:54:56.389Z,22.2370
2023-04-17T05:55:58.995Z,22.2358
2023-04-17T05:57:01.555Z,22.2385
2023-04-17T05:58:16.862Z,22.2346
2023-04-17T05:59:07.753Z,22.2323
2023-04-17T06:00:09.336Z,22.2461
2023-04-17T06:01:11.914Z,22.2526
2023-04-17T06:02:14.587Z,22.2457
2023-04-17T06:03:18.162Z,22.2508
2023-04-17T06:04:19.987Z,22.2393
2023-04-17T06:05:22.327Z,22.2241
2023-04-17T06:06:24.846Z,22.2212
2023-04-17T06:07:27.401Z,22.2409
2023-04-17T06:08:30.016Z,22.2498
2023-04-17T06:09:32.581Z,22.2496
2023-04-17T06:10:35.198Z,22.2713
2023-04-17T06:11:37.748Z,22.2793
2023-04-17T06:12:40.361Z,22.2966
2023-04-17T06:13:42.966Z,22.3034
2023-04-17T06:14:45.525Z,22.3130
2023-04-17T06:15:48.077Z,22.3069
2023-04-17T06:16:50.850Z,22.3225
2023-04-17T06:17:53.319Z,22.3280
2023-04-17T06:18:55.860Z,22.3315
2023-04-17T06:19:58.414Z,22.3247
2023-04-17T06:21:01.051Z,22.3406
2023-04-17T06:22:03.584Z,22.3443
2023-04-17T06:23:06.196Z,22.3426
2023-04-17T06:24:08.764Z,22.3375
2023-04-17T06:25:11.915Z,22.3477
2023-04-17T06:26:13.929Z,22.3440
2023-04-17T06:27:16.533Z,22.3297
2023-04-17T06:28:19.099Z,22.3502
2023-04-17T06:29:21.734Z,22.3504
2023-04-17T06:30:24.256Z,22.3227
2023-04-17T06:31:26.888Z,22.3313
2023-04-17T06:32:29.484Z,22.3307
2023-04-17T06:33:32.062Z,22.3167
2023-04-17T06:34:34.604Z,22.2960
2023-04-17T06:35:37.206Z,22.2954
2023-04-17T06:36:39.792Z,22.3024
2023-04-17T06:37:42.576Z,22.3073
2023-04-17T06:38:44.933Z,22.2993
2023-04-17T06:39:47.535Z,22.2937
2023-04-17T06:40:52.131Z,22.2939
2023-04-17T06:41:52.703Z,22.2896
2023-04-17T06:42:55.308Z,22.2880
2023-04-17T06:43:57.865Z,22.2917
2023-04-17T06:45:00.434Z,22.3001
2023-04-17T06:46:03.054Z,22.3021
2023-04-17T06:47:05.593Z,22.3153
2023-04-17T06:48:08.201Z,22.3215
2023-04-17T06:49:11.038Z,22.3013
2023-04-17T06:50:13.387Z,22.2929
2023-04-17T06:51:15.917Z,22.3132
2023-04-17T06:52:18.525Z,22.3215
2023-04-17T06:53:21.086Z,22.3241
2023-04-17T06:54:23.700Z,22.3233
2023-04-17T06:55:26.277Z,22.3198
2023-04-17T06:56:28.893Z,22.3147
2023-04-17T06:57:31.412Z,22.3118
2023-04-17T06:58:34.030Z,22.3007
2023-04-17T06:59:36.575Z,22.2989
2023-04-17T07:00:39.200Z,22.2991
2023-04-17T07:01:41.826Z,22.3001
2023-04-17T07:02:44.433Z,22.2970
2023-04-17T07:03:47.082Z,22.2995
2023-04-17T07:04:49.784Z,22.3081
2023-04-17T07:05:52.084Z,22.3063
2023-04-17T07:06:54.684Z,22.2984
2023-04-17T07:07:57.237Z,22.3026
2023-04-17T07:09:00.120Z,22.3046
2023-04-17T07:10:02.413Z,22.3034
2023-04-17T07:11:05.048Z,22.3069
2023-04-17T07:12:07.589Z,22.2874
2023-04-17T07:13:10.192Z,22.3104
2023-04-17T07:14:12.973Z,22.3295
2023-04-17T07:15:15.523Z,22.3373
2023-04-17T07:16:17.981Z,22.3235
2023-04-17T07:17:20.613Z,22.3299
2023-04-17T07:18:23.095Z,22.3356
2023-04-17T07:19:25.703Z,22.3475
2023-04-17T07:20:28.283Z,22.3531
2023-04-17T07:21:30.872Z,22.3488
2023-04-17T07:22:33.434Z,22.3572
2023-04-17T07:23:36.035Z,22.3677
2023-04-17T07:24:38.603Z,22.3821
2023-04-17T07:25:41.235Z,22.3779
2023-04-17T07:26:44.040Z,22.3798
2023-04-17T07:27:46.382Z,22.3917
2023-04-17T07:28:48.942Z,22.3884
2023-04-17T07:29:51.564Z,22.3933
2023-04-17T07:30:54.107Z,22.4016
2023-04-17T07:31:56.928Z,22.3919
2023-04-17T07:32:59.534Z,22.3810
2023-04-17T07:34:01.925Z,22.3847
2023-04-17T07:35:04.494Z,22.3771
2023-04-17T07:36:07.072Z,22.3788
2023-04-17T07:37:09.632Z,22.3740
2023-04-17T07:38:12.254Z,22.3866
2023-04-17T07:39:14.855Z,22.3821
2023-04-17T07:40:17.410Z,22.3944
2023-04-17T07:41:19.971Z,22.3880
2023-04-17T07:42:22.661Z,22.3833
2023-04-17T07:43:25.206Z,22.3773
2023-04-17T07:44:27.766Z,22.3845
2023-04-17T07:45:30.334Z,22.3886
2023-04-17T07:46:33.005Z,22.3890
2023-04-17T07:47:35.557Z,22.3872
2023-04-17T07:48:38.117Z,22.3851
2023-04-17T07:49:40.675Z,22.3872
2023-04-17T07:50:43.276Z,22.3921
2023-04-17T07:51:45.830Z,22.3950
2023-04-17T07:52:48.453Z,22.3964
2023-04-17T07:53:51.031Z,22.4003
2023-04-17T07:54:53.628Z,22.4065
2023-04-17T07:55:56.228Z,22.4096
2023-04-17T07:56:58.856Z,22.4042
2023-04-17T07:58:01.345Z,22.4081
2023-04-17T07:59:03.958Z,22.4063
2023-04-17T08:00:06.511Z,22.4046
2023-04-17T08:01:09.126Z,22.4108
2023-04-17T08:02:11.800Z,22.4065
2023-04-17T08:03:14.504Z,22.4071
2023-04-17T08:04:17.338Z,22.4110
2023-04-17T08:05:19.531Z,22.4153
2023-04-17T08:06:22.023Z,22.4166
2023-04-17T08:07:24.668Z,22.4198
2023-04-17T08:08:27.202Z,22.4262
2023-04-17T08:09:29.815Z,22.4361
2023-04-17T08:10:32.372Z,22.4348
2023-04-17T08:11:40.095Z,22.4328
2023-04-17T08:12:38.823Z,22.4336
2023-04-17T08:13:40.150Z,22.4367
2023-04-17T08:14:42.709Z,22.4381
2023-04-17T08:15:45.329Z,22.4299
2023-04-17T08:16:47.952Z,22.4350
2023-04-17T08:17:50.526Z,22.4355
2023-04-17T08:18:53.055Z,22.4361
2023-04-17T08:19:55.692Z,22.4367
2023-04-17T08:20:58.217Z,22.4470
2023-04-17T08:22:00.837Z,22.4527
2023-04-17T08:23:03.402Z,22.4435
2023-04-17T08:24:06.003Z,22.4507
2023-04-17T08:25:08.557Z,22.4488
2023-04-17T08:26:11.167Z,22.4548
2023-04-17T08:27:13.730Z,22.4548
2023-04-17T08:28:16.379Z,22.4466
2023-04-17T08:29:18.951Z,22.4463
2023-04-17T08:30:21.496Z,22.4472
2023-04-17T08:31:24.177Z,22.4488
2023-04-17T08:32:26.674Z,22.4488
2023-04-17T08:33:29.224Z,22.4509
2023-04-17T08:34:31.987Z,22.4552
2023-04-17T08:35:34.389Z,22.4488
2023-04-17T08:36:37.001Z,22.4476
2023-04-17T08:37:39.569Z,22.4552
2023-04-17T08:38:42.208Z,22.4638
2023-04-17T08:39:44.730Z,22.4661
2023-04-17T08:40:47.357Z,22.4716
2023-04-17T08:41:49.893Z,22.4761
2023-04-17T08:42:52.505Z,22.4687
2023-04-17T08:43:55.078Z,22.4714
2023-04-17T08:44:57.666Z,22.4938
2023-04-17T08:46:00.604Z,22.5047
2023-04-17T08:47:02.840Z,22.5045
2023-04-17T08:48:05.424Z,22.5123
2023-04-17T08:49:08.015Z,22.5135
2023-04-17T08:50:10.595Z,22.5113
2023-04-17T08:51:13.178Z,22.5252
2023-04-17T08:52:15.746Z,22.5326
2023-04-17T08:53:18.341Z,22.5392
2023-04-17T08:54:20.897Z,22.5454
2023-04-17T08:55:23.522Z,22.5484
2023-04-17T08:56:26.076Z,22.5527
2023-04-17T08:57:28.675Z,22.5647
2023-04-17T08:58:31.236Z,22.5612
2023-04-17T08:59:33.867Z,22.5735
2023-04-17T09:00:36.435Z,22.5704
2023-04-17T09:01:39.089Z,22.5710
2023-04-17T09:02:41.716Z,22.5735
2023-04-17T09:03:44.338Z,22.5850
2023-04-17T09:04:46.859Z,22.5971
2023-04-17T09:05:49.359Z,22.5957
2023-04-17T09:06:52.025Z,22.5955
2023-04-17T09:07:54.528Z,22.5928
2023-04-17T09:08:57.086Z,22.5932
2023-04-17T09:09:59.708Z,22.5879
2023-04-17T09:11:02.276Z,22.5905
2023-04-17T09:12:04.890Z,22.5930
2023-04-17T09:13:07.474Z,22.5992
2023-04-17T09:14:10.037Z,22.5967
2023-04-17T09:15:12.603Z,22.5914
2023-04-17T09:16:15.281Z,22.5969
2023-04-17T09:17:17.770Z,22.5951
2023-04-17T09:18:20.451Z,22.5848
2023-04-17T09:19:23.133Z,22.5834
2023-04-17T09:20:25.772Z,22.5821
2023-04-17T09:21:28.174Z,22.5774
2023-04-17T09:22:30.792Z,22.5764
2023-04-17T09:23:33.352Z,22.5776
2023-04-17T09:24:36.316Z,22.5739
2023-04-17T09:25:38.514Z,22.5819
2023-04-17T09:26:41.135Z,22.5805
2023-04-17T09:27:43.682Z,22.5856
2023-04-17T09:28:46.303Z,22.5731
2023-04-17T09:29:48.854Z,22.5780
2023-04-17T09:30:51.466Z,22.5817
2023-04-17T09:31:54.095Z,22.5733
2023-04-17T09:32:56.785Z,22.5918
2023-04-17T09:33:59.216Z,22.5971
2023-04-17T09:35:01.825Z,22.5840
2023-04-17T09:36:04.401Z,22.5844
2023-04-17T09:37:07.969Z,22.5866
2023-04-17T09:38:09.559Z,22.5901
2023-04-17T09:39:12.242Z,22.5860
2023-04-17T09:40:14.723Z,22.5887
2023-04-17T09:41:17.407Z,22.5850
2023-04-17T09:42:19.914Z,22.5852
2023-04-17T09:43:22.442Z,22.6064
2023-04-17T09:44:25.057Z,22.6248
2023-04-17T09:45:48.604Z,22.6113
2023-04-17T09:46:30.250Z,22.6177
2023-04-17T09:47:32.838Z,22.6092
2023-04-17T09:48:35.368Z,22.5926
2023-04-17T09:49:38.198Z,22.5858
2023-04-17T09:50:40.527Z,22.5825
2023-04-17T09:51:43.155Z,22.5805
2023-04-17T09:52:45.713Z,22.5827
2023-04-17T09:53:48.363Z,22.5901
2023-04-17T09:54:50.849Z,22.5947
2023-04-17T09:55:53.467Z,22.6168
2023-04-17T09:56:56.213Z,22.6070
2023-04-17T09:57:58.625Z,22.6039
2023-04-17T09:59:01.193Z,22.6103
2023-04-17T10:00:03.786Z,22.6103
2023-04-17T10:01:06.401Z,22.6080
2023-04-17T10:02:09.092Z,22.5965
2023-04-17T10:03:11.760Z,22.6135
2023-04-17T10:04:14.440Z,22.6121
2023-04-17T10:05:16.672Z,22.6125
2023-04-17T10:06:19.306Z,22.6109
2023-04-17T10:07:21.842Z,22.6370
2023-04-17T10:08:24.451Z,22.6598
2023-04-17T10:09:27.043Z,22.6920
2023-04-17T10:10:29.670Z,22.7050
2023-04-17T10:11:32.196Z,22.7140
2023-04-17T10:12:35.113Z,22.7325
2023-04-17T10:13:37.337Z,22.7462
2023-04-17T10:14:39.953Z,22.7043
2023-04-17T10:15:42.500Z,22.6813
2023-04-17T10:16:45.327Z,22.3457
2023-04-17T10:17:47.677Z,22.0294
2023-04-17T10:18:50.293Z,21.8661
2023-04-17T10:19:52.852Z,21.9706
2023-04-17T10:20:55.534Z,22.1288
2023-04-17T10:21:58.006Z,22.2461
2023-04-17T10:23:00.617Z,22.3184
2023-04-17T10:24:03.174Z,22.3901
2023-04-17T10:25:05.768Z,22.4453
2023-04-17T10:26:08.335Z,22.4958
2023-04-17T10:27:10.958Z,22.4930
2023-04-17T10:28:13.507Z,22.5256
2023-04-17T10:29:16.109Z,22.5550
2023-04-17T10:31:21.311Z,22.5998
2023-04-17T10:32:23.818Z,22.6150
2023-04-17T10:33:26.470Z,22.6269
2023-04-17T10:34:29.045Z,22.6300
2023-04-17T10:35:31.603Z,22.6263
2023-04-17T10:36:34.156Z,22.6292
2023-04-17T10:37:36.764Z,22.6316
2023-04-17T10:38:39.319Z,22.6230
2023-04-17T10:39:41.928Z,22.6166
2023-04-17T10:40:44.548Z,22.6094
2023-04-17T10:41:47.106Z,22.5983
2023-04-17T10:42:49.661Z,22.5981
2023-04-17T10:43:52.290Z,22.5965
2023-04-17T10:44:54.845Z,22.5922
2023-04-17T10:45:57.531Z,22.5866
2023-04-17T10:46:59.993Z,22.5801
2023-04-17T10:48:02.697Z,22.5825
2023-04-17T10:49:05.185Z,22.5782
2023-04-17T10:50:07.790Z,22.5879
2023-04-17T10:51:10.355Z,22.5799
2023-04-17T10:52:12.944Z,22.5784
2023-04-17T10:53:15.504Z,22.5714
2023-04-17T10:54:18.114Z,22.5698
2023-04-17T10:55:20.686Z,22.5663
2023-04-17T10:56:23.285Z,22.5741
2023-04-17T10:57:26.176Z,22.5766
2023-04-17T10:58:31.616Z,22.5815
2023-04-17T10:59:31.010Z,22.5934
2023-04-17T11:00:33.628Z,22.6084
2023-04-17T11:01:36.197Z,22.6214
2023-04-17T11:02:38.841Z,22.5758
2023-04-17T11:03:41.375Z,22.2670
2023-04-17T11:04:43.979Z,22.0205
2023-04-17T11:05:46.524Z,22.0980
2023-04-17T11:06:49.136Z,22.1988
2023-04-17T11:07:51.676Z,22.2785
2023-04-17T11:08:55.615Z,22.3426
2023-04-17T11:09:56.824Z,22.3790
2023-04-17T11:10:59.461Z,22.4088
2023-04-17T11:12:02.383Z,22.4316
2023-04-17T11:13:04.606Z,22.4392
2023-04-17T11:14:07.152Z,22.4519
2023-04-17T11:15:09.818Z,22.4885
2023-04-17T11:16:12.318Z,22.5133
2023-04-17T11:17:14.954Z,22.5203
